Tabea — CQDB — position and weather

sailwx.info

Track history (hours):
 
Tides and Currents Weather Stations Pressure Air Temp Water Temp Dewpoint Dewpoint Depression Visibility Wind Speed Wind Dir Waves Ship Positions

Tabea

Last reported at 2017-Oct-15 23:15 UTC. Time now 2017-Oct-23 06:11 UTC.
Position S 24°14' W 046°00'.

Length 276 m; draft 10.7 m.

Type: Ship (hazmat cat A). MMSI: 255805778.

Date/timePositionNaut miles runAvg speedWind from/ knotsBaromVisibWave heightAir tempDewpointWater temp
2017-Oct-15 23:15S 24°14' W 046°00'314.5
2017-Oct-15 23:00S 24°14' W 046°04'714.7
2017-Oct-15 22:30S 24°14' W 046°12'714.2
2017-Oct-15 22:00S 24°13' W 046°20'714.4
2017-Oct-15 21:30S 24°06' W 046°23'612.1
2017-Oct-15 21:00S 24°00' W 046°20'3 6.4
2017-Oct-15 20:30S 23°58' W 046°17'0 0.8
2017-Oct-15 19:58S 23°58' W 046°18'0 0.0
2017-Oct-15 19:17S 23°58' W 046°18'0 0.0
2017-Oct-15 18:23S 23°58' W 046°18'0 0.0
2017-Oct-15 17:59S 23°58' W 046°18'0 0.0
2017-Oct-15 17:29S 23°58' W 046°18'0 0.0
2017-Oct-15 16:59S 23°58' W 046°18'0 0.0
2017-Oct-15 16:29S 23°58' W 046°18'0 0.0
2017-Oct-15 15:59S 23°58' W 046°18'0 0.0
2017-Oct-15 15:23S 23°58' W 046°18'0 0.0
2017-Oct-15 14:59S 23°58' W 046°18'0 0.0
2017-Oct-15 13:59S 23°58' W 046°18'0 0.0
2017-Oct-15 13:29S 23°58' W 046°17'0 0.0
2017-Oct-15 12:59S 23°58' W 046°18'0 0.0
2017-Oct-15 12:29S 23°58' W 046°18'0 0.0
2017-Oct-15 11:59S 23°58' W 046°18'0 0.0
2017-Oct-15 11:29S 23°58' W 046°18'0 0.0
2017-Oct-15 10:59S 23°58' W 046°17'0 0.0
2017-Oct-15 10:17S 23°58' W 046°18'0 0.0
2017-Oct-15 09:59S 23°58' W 046°18'0 0.0
2017-Oct-15 09:29S 23°58' W 046°17'0 0.0
2017-Oct-15 08:59S 23°58' W 046°17'0 0.0
2017-Oct-15 08:29S 23°58' W 046°17'0 0.0
2017-Oct-15 07:53S 23°58' W 046°17'0 0.0
2017-Oct-15 07:23S 23°58' W 046°18'0 0.0
2017-Oct-15 06:53S 23°58' W 046°18'0 0.0
2017-Oct-15 06:29S 23°58' W 046°18'0 0.0
2017-Oct-15 05:59S 23°58' W 046°18'0 0.0
2017-Oct-15 05:29S 23°58' W 046°18'0 0.0
2017-Oct-15 04:59S 23°58' W 046°18'0 0.0
2017-Oct-15 04:29S 23°58' W 046°17'0 0.0
2017-Oct-15 03:59S 23°58' W 046°18'0 0.0
2017-Oct-15 03:23S 23°58' W 046°18'0 0.0
2017-Oct-15 02:59S 23°58' W 046°18'0 0.0
2017-Oct-15 02:29S 23°58' W 046°18'0 0.0
2017-Oct-15 01:41S 23°58' W 046°18'0 0.1
2017-Oct-15 01:29S 23°58' W 046°17'0 0.0
2017-Oct-15 00:59S 23°58' W 046°18'0 0.0
2017-Oct-15 00:29S 23°58' W 046°18'0 0.5
2017-Oct-15 00:00S 23°58' W 046°17'3 6.5
2017-Oct-14 23:30S 24°00' W 046°20'4 8.7
2017-Oct-14 23:00S 24°04' W 046°22'3 6.4
2017-Oct-14 22:30S 24°07' W 046°23'1 1.1
2017-Oct-14 22:00S 24°08' W 046°23'1 1.2
2017-Oct-14 21:30S 24°08' W 046°24'1 1.4
2017-Oct-14 21:00S 24°09' W 046°24'1 1.1
2017-Oct-14 20:30S 24°10' W 046°24'1 1.2
2017-Oct-14 20:00S 24°10' W 046°24'1 1.2
2017-Oct-14 19:30S 24°11' W 046°24'1 1.2
2017-Oct-14 19:00S 24°11' W 046°24'5 9.3
2017-Oct-14 18:30S 24°16' W 046°25'917.2
2017-Oct-14 18:00S 24°24' W 046°29'1019.6
2017-Oct-14 17:30S 24°32' W 046°35'1019.7
2017-Oct-14 17:00S 24°40' W 046°41'  
Track history (hours):
 
Tides and Currents Weather Stations Pressure Air Temp Water Temp Dewpoint Dewpoint Depression Visibility Wind Speed Wind Dir Waves Ship Positions

Tabea

Last reported at 2017-Oct-15 23:15 UTC. Time now 2017-Oct-23 06:11 UTC.
Position S 24°14' W 046°00'.

Length 276 m; draft 10.7 m.

Type: Ship (hazmat cat A). MMSI: 255805778.

Date/timePositionNaut miles runAvg speedWind from/ knotsBaromVisibWave heightAir tempDewpointWater temp
2017-Oct-15 23:15S 24°14' W 046°00'314.5
2017-Oct-15 23:00S 24°14' W 046°04'714.7
2017-Oct-15 22:30S 24°14' W 046°12'714.2
2017-Oct-15 22:00S 24°13' W 046°20'714.4
2017-Oct-15 21:30S 24°06' W 046°23'612.1
2017-Oct-15 21:00S 24°00' W 046°20'3 6.4
2017-Oct-15 20:30S 23°58' W 046°17'0 0.8
2017-Oct-15 19:58S 23°58' W 046°18'0 0.0
2017-Oct-15 19:17S 23°58' W 046°18'0 0.0
2017-Oct-15 18:23S 23°58' W 046°18'0 0.0
2017-Oct-15 17:59S 23°58' W 046°18'0 0.0
2017-Oct-15 17:29S 23°58' W 046°18'0 0.0
2017-Oct-15 16:59S 23°58' W 046°18'0 0.0
2017-Oct-15 16:29S 23°58' W 046°18'0 0.0
2017-Oct-15 15:59S 23°58' W 046°18'0 0.0
2017-Oct-15 15:23S 23°58' W 046°18'0 0.0
2017-Oct-15 14:59S 23°58' W 046°18'0 0.0
2017-Oct-15 13:59S 23°58' W 046°18'0 0.0
2017-Oct-15 13:29S 23°58' W 046°17'0 0.0
2017-Oct-15 12:59S 23°58' W 046°18'0 0.0
2017-Oct-15 12:29S 23°58' W 046°18'0 0.0
2017-Oct-15 11:59S 23°58' W 046°18'0 0.0
2017-Oct-15 11:29S 23°58' W 046°18'0 0.0
2017-Oct-15 10:59S 23°58' W 046°17'0 0.0
2017-Oct-15 10:17S 23°58' W 046°18'0 0.0
2017-Oct-15 09:59S 23°58' W 046°18'0 0.0
2017-Oct-15 09:29S 23°58' W 046°17'0 0.0
2017-Oct-15 08:59S 23°58' W 046°17'0 0.0
2017-Oct-15 08:29S 23°58' W 046°17'0 0.0
2017-Oct-15 07:53S 23°58' W 046°17'0 0.0
2017-Oct-15 07:23S 23°58' W 046°18'0 0.0
2017-Oct-15 06:53S 23°58' W 046°18'0 0.0
2017-Oct-15 06:29S 23°58' W 046°18'0 0.0
2017-Oct-15 05:59S 23°58' W 046°18'0 0.0
2017-Oct-15 05:29S 23°58' W 046°18'0 0.0
2017-Oct-15 04:59S 23°58' W 046°18'0 0.0
2017-Oct-15 04:29S 23°58' W 046°17'0 0.0
2017-Oct-15 03:59S 23°58' W 046°18'0 0.0
2017-Oct-15 03:23S 23°58' W 046°18'0 0.0
2017-Oct-15 02:59S 23°58' W 046°18'0 0.0
2017-Oct-15 02:29S 23°58' W 046°18'0 0.0
2017-Oct-15 01:41S 23°58' W 046°18'0 0.1
2017-Oct-15 01:29S 23°58' W 046°17'0 0.0
2017-Oct-15 00:59S 23°58' W 046°18'0 0.0
2017-Oct-15 00:29S 23°58' W 046°18'0 0.5
2017-Oct-15 00:00S 23°58' W 046°17'3 6.5
2017-Oct-14 23:30S 24°00' W 046°20'4 8.7
2017-Oct-14 23:00S 24°04' W 046°22'3 6.4
2017-Oct-14 22:30S 24°07' W 046°23'1 1.1
2017-Oct-14 22:00S 24°08' W 046°23'1 1.2
2017-Oct-14 21:30S 24°08' W 046°24'1 1.4
2017-Oct-14 21:00S 24°09' W 046°24'1 1.1
2017-Oct-14 20:30S 24°10' W 046°24'1 1.2
2017-Oct-14 20:00S 24°10' W 046°24'1 1.2
2017-Oct-14 19:30S 24°11' W 046°24'1 1.2
2017-Oct-14 19:00S 24°11' W 046°24'5 9.3
2017-Oct-14 18:30S 24°16' W 046°25'917.2
2017-Oct-14 18:00S 24°24' W 046°29'1019.6
2017-Oct-14 17:30S 24°32' W 046°35'1019.7
2017-Oct-14 17:00S 24°40' W 046°41'  

Dump ship's entire track history